Time;durP1;ratioP1;P1;durP2;ratioP2;P2;SDS_P1;SDS_P2;PMS_P1;PMS_P2;Temp;Humidity;BMP_temperature;BMP_pressure;BME280_temperature;BME280_humidity;BME280_pressure;Samples;Min_cycle;Max_cycle;Signal;HPM_P1;HPM_P2
2024/01/05 00:02:14;;;;;;;3.50;2.33;;;;;;;5.85;100.00;100048.88;5049785;28;20033;-79
2024/01/05 00:04:39;;;;;;;4.40;3.33;;;;;;;5.85;100.00;100038.63;5050461;28;20568;-74
2024/01/05 00:07:09;;;;;;;4.60;2.67;;;;;;;5.55;100.00;99993.63;5053389;28;20064;-73
2024/01/05 00:09:34;;;;;;;4.53;2.90;;;;;;;5.69;100.00;100021.63;5053600;28;20465;-77
2024/01/05 00:12:00;;;;;;;4.78;2.53;;;;;;;5.88;100.00;100052.47;5052426;28;20040;-74
2024/01/05 00:14:25;;;;;;;5.45;2.70;;;;;;;5.92;100.00;100074.84;5053111;28;20419;-73
2024/01/05 00:16:52;;;;;;;5.97;2.83;;;;;;;5.76;100.00;100051.84;5053660;28;20079;-74
2024/01/05 00:19:18;;;;;;;4.05;2.17;;;;;;;6.03;100.00;100085.69;5053367;28;20153;-77
2024/01/05 00:21:43;;;;;;;3.95;2.08;;;;;;;6.11;100.00;100088.59;5053023;28;20116;-72
2024/01/05 00:24:09;;;;;;;4.40;2.42;;;;;;;5.98;100.00;100058.88;5053392;28;20067;-73
2024/01/05 00:26:39;;;;;;;3.80;2.65;;;;;;;6.28;100.00;100099.66;5053279;28;20025;-73
2024/01/05 00:29:04;;;;;;;3.92;1.98;;;;;;;5.97;100.00;100031.53;5053174;28;20025;-76
2024/01/05 00:31:30;;;;;;;4.38;1.92;;;;;;;6.41;100.00;100101.13;5052860;28;20029;-79
2024/01/05 00:33:56;;;;;;;4.65;2.20;;;;;;;6.48;100.00;100119.44;5053102;28;20449;-75
2024/01/05 00:36:24;;;;;;;3.15;2.20;;;;;;;5.85;100.00;100024.13;5052824;28;20029;-73
2024/01/05 00:38:49;;;;;;;3.08;2.20;;;;;;;6.59;100.00;100121.63;5039993;28;20036;-74
2024/01/05 00:41:15;;;;;;;3.70;2.20;;;;;;;6.57;100.00;100108.75;5053116;28;20025;-72
2024/01/05 00:43:43;;;;;;;4.30;2.15;;;;;;;6.11;100.00;100034.78;5053069;28;20573;-73
2024/01/05 00:46:09;;;;;;;3.22;2.22;;;;;;;6.26;100.00;100065.41;5053014;28;20033;-74
2024/01/05 00:48:35;;;;;;;4.20;2.33;;;;;;;6.61;100.00;100131.16;5053053;28;20036;-74
2024/01/05 00:51:00;;;;;;;3.13;2.42;;;;;;;6.70;100.00;100152.94;5052772;28;20724;-73
2024/01/05 00:53:27;;;;;;;4.70;2.50;;;;;;;6.44;100.00;100111.53;5052723;28;20491;-73
2024/01/05 00:55:52;;;;;;;4.15;2.35;;;;;;;6.51;100.00;100143.50;5053100;28;20471;-76
2024/01/05 00:58:18;;;;;;;3.30;2.28;;;;;;;6.27;100.00;100111.59;5052512;28;20028;-73
2024/01/05 01:00:44;;;;;;;5.20;2.67;;;;;;;6.32;100.00;100130.66;5052672;28;20450;-75
2024/01/05 01:03:09;;;;;;;4.28;2.25;;;;;;;6.31;100.00;100136.56;5052353;28;20031;-75
2024/01/05 01:05:35;;;;;;;4.95;2.80;;;;;;;6.14;100.00;100132.31;5052091;28;20025;-72
2024/01/05 01:08:01;;;;;;;5.10;2.70;;;;;;;5.89;100.00;100145.56;5052238;28;20056;-73
2024/01/05 01:10:26;;;;;;;4.68;2.38;;;;;;;5.75;100.00;100155.97;5052022;28;20118;-74
2024/01/05 01:12:52;;;;;;;4.55;2.53;;;;;;;5.22;100.00;100082.41;5052025;28;20040;-78
2024/01/05 01:15:17;;;;;;;3.80;2.58;;;;;;;5.41;100.00;100126.06;5051778;28;20037;-73
2024/01/05 01:17:43;;;;;;;4.70;2.78;;;;;;;5.37;100.00;100136.06;5051959;28;20098;-75
2024/01/05 01:20:09;;;;;;;5.22;2.88;;;;;;;5.44;100.00;100150.97;5051773;28;20033;-73
2024/01/05 01:22:35;;;;;;;4.97;2.88;;;;;;;5.33;100.00;100146.16;5052291;28;20033;-72
2024/01/05 01:25:00;;;;;;;5.22;2.60;;;;;;;5.44;100.00;100162.06;5050912;28;20060;-72
2024/01/05 01:27:26;;;;;;;4.15;2.40;;;;;;;5.44;100.00;100167.19;5051262;28;20029;-71
2024/01/05 01:29:51;;;;;;;4.82;2.75;;;;;;;5.43;100.00;100168.00;5052020;28;20029;-75
2024/01/05 01:32:17;;;;;;;6.70;2.95;;;;;;;5.44;100.00;100171.44;5052019;28;20025;-74
2024/01/05 01:34:43;;;;;;;5.88;3.25;;;;;;;5.52;100.00;100157.38;5052212;28;20403;-73
2024/01/05 01:37:08;;;;;;;5.40;3.00;;;;;;;5.48;100.00;100143.53;5050861;28;20120;-73
2024/01/05 01:39:34;;;;;;;4.90;2.60;;;;;;;5.73;100.00;100159.25;5052026;28;20119;-75
2024/01/05 01:42:00;;;;;;;5.93;3.55;;;;;;;5.73;100.00;100143.91;5051776;28;20033;-72
2024/01/05 01:44:25;;;;;;;9.63;5.45;;;;;;;5.94;100.00;100160.38;5052059;28;20407;-73
2024/01/05 01:46:55;;;;;;;7.68;4.30;;;;;;;5.47;100.00;100067.50;5051906;28;20017;-76
2024/01/05 01:49:21;;;;;;;;;;;;;;;6.05;100.00;100165.19;5051971;28;20025;-74
2024/01/05 01:51:47;;;;;;;4.95;2.95;;;;;;;5.96;100.00;100158.75;5051504;28;19913;-74
2024/01/05 01:54:12;;;;;;;4.60;2.55;;;;;;;6.02;100.00;100158.22;5050377;28;20132;-71
2024/01/05 01:56:39;;;;;;;4.47;2.53;;;;;;;5.97;100.00;100157.09;5051684;28;20487;-72
2024/01/05 01:59:06;;;;;;;3.80;2.60;;;;;;;5.58;100.00;100098.78;5051363;28;20040;-75
2024/01/05 02:01:32;;;;;;;5.18;2.70;;;;;;;5.87;100.00;100160.88;5051442;28;20083;-73
2024/01/05 02:03:58;;;;;;;4.47;2.40;;;;;;;5.41;100.00;100084.22;5051108;28;20021;-73
2024/01/05 02:06:23;;;;;;;5.07;2.85;;;;;;;5.67;100.00;100145.34;5051527;28;20419;-72
2024/01/05 02:08:50;;;;;;;5.75;2.95;;;;;;;5.50;100.00;100125.69;5051582;28;20032;-73
2024/01/05 02:11:16;;;;;;;5.93;3.38;;;;;;;5.54;100.00;100148.06;5051332;28;20025;-75
2024/01/05 02:13:42;;;;;;;4.75;2.85;;;;;;;5.59;100.00;100171.34;5051087;28;20399;-73
2024/01/05 02:16:08;;;;;;;5.13;3.15;;;;;;;5.51;100.00;100158.16;5050835;28;20036;-72
2024/01/05 02:18:33;;;;;;;6.05;3.10;;;;;;;5.51;100.00;100173.53;5051039;28;20029;-74
2024/01/05 02:21:00;;;;;;;4.50;2.80;;;;;;;5.41;100.00;100155.91;5049900;28;20044;-73
2024/01/05 02:23:32;;;;;;;4.28;2.80;;;;;;;5.13;100.00;100116.94;5051009;28;20504;-73
2024/01/05 02:25:58;;;;;;;4.85;3.05;;;;;;;5.30;100.00;100166.47;5038152;28;20029;-72
2024/01/05 02:28:24;;;;;;;5.90;2.80;;;;;;;5.04;100.00;100153.97;5049622;28;20473;-72
2024/01/05 02:30:54;;;;;;;3.30;2.42;;;;;;;5.11;100.00;100179.06;5051267;28;20033;-72
2024/01/05 02:33:20;;;;;;;4.47;2.90;;;;;;;5.02;100.00;100182.91;5050632;28;20520;-71
2024/01/05 02:35:45;;;;;;;4.88;3.08;;;;;;;4.87;100.00;100166.69;5051171;28;20033;-72
2024/01/05 02:38:11;;;;;;;6.20;3.28;;;;;;;4.70;100.00;100147.88;5050581;28;20124;-72
2024/01/05 02:40:36;;;;;;;8.32;4.88;;;;;;;4.96;100.00;100197.91;5050839;28;20032;-73
2024/01/05 02:43:02;;;;;;;18.70;12.23;;;;;;;4.55;100.00;100132.56;5050233;28;20063;-72
2024/01/05 02:45:27;;;;;;;16.23;10.65;;;;;;;4.49;100.00;100106.66;5050458;28;20021;-72
2024/01/05 02:47:53;;;;;;;12.27;8.63;;;;;;;5.06;100.00;100198.41;5050985;28;20086;-72
2024/01/05 02:50:19;;;;;;;5.65;3.50;;;;;;;5.12;100.00;100201.28;5049434;28;20028;-74
2024/01/05 02:52:45;;;;;;;5.65;3.40;;;;;;;5.21;100.00;100206.94;5050879;28;20120;-72
2024/01/05 02:55:11;;;;;;;7.00;4.07;;;;;;;5.08;100.00;100174.66;5050705;28;20120;-77
2024/01/05 02:57:38;;;;;;;4.55;3.13;;;;;;;5.29;100.00;100208.22;5050164;28;20471;-75
2024/01/05 03:00:05;;;;;;;6.35;3.40;;;;;;;5.38;100.00;100214.63;5050432;28;20036;-73
2024/01/05 03:02:31;;;;;;;5.97;2.88;;;;;;;5.40;100.00;100216.47;5050743;28;20052;-74
2024/01/05 03:04:57;;;;;;;7.65;3.70;;;;;;;5.41;100.00;100212.22;5050642;28;20065;-77
2024/01/05 03:07:22;;;;;;;6.65;4.53;;;;;;;5.46;100.00;100218.50;5050336;28;20028;-73
2024/01/05 03:09:48;;;;;;;5.03;3.47;;;;;;;5.49;100.00;100222.06;5050311;28;20037;-73
2024/01/05 03:12:13;;;;;;;7.72;3.72;;;;;;;5.41;100.00;100212.22;5049936;28;20031;-75
2024/01/05 03:14:39;;;;;;;15.60;11.35;;;;;;;5.18;100.00;100178.59;5050234;28;20538;-77
2024/01/05 03:17:05;;;;;;;10.35;6.88;;;;;;;5.39;100.00;100229.19;5050432;28;20048;-79
2024/01/05 03:19:31;;;;;;;4.70;3.08;;;;;;;4.99;100.00;100203.19;5050134;28;20040;-78
2024/01/05 03:21:56;;;;;;;6.38;3.80;;;;;;;4.90;100.00;100209.47;5050493;28;20029;-79
2024/01/05 03:24:22;;;;;;;7.03;4.72;;;;;;;5.00;100.00;100235.66;5050518;28;20017;-80
2024/01/05 03:26:48;;;;;;;6.40;3.92;;;;;;;4.89;100.00;100223.94;5050066;28;20033;-81
2024/01/05 03:29:13;;;;;;;7.47;3.15;;;;;;;4.59;100.00;100203.53;5049994;28;20403;-87
2024/01/05 03:31:44;;;;;;;6.45;3.22;;;;;;;4.73;100.00;100234.13;5049902;28;20036;-81
2024/01/05 03:34:09;;;;;;;4.93;3.10;;;;;;;4.61;100.00;100231.72;5050329;28;20025;-79
2024/01/05 03:36:35;;;;;;;6.40;3.83;;;;;;;4.67;100.00;100238.09;5049801;28;20090;-82
2024/01/05 03:39:00;;;;;;;7.00;3.83;;;;;;;4.72;100.00;100251.13;5049826;28;20037;-81
2024/01/05 03:41:26;;;;;;;6.10;3.60;;;;;;;4.84;100.00;100244.13;5049990;28;20407;-78
2024/01/05 03:43:52;;;;;;;6.30;3.58;;;;;;;4.63;100.00;100192.66;5049902;28;20104;-78
2024/01/05 03:46:17;;;;;;;6.72;3.72;;;;;;;4.51;100.00;100172.44;5049960;28;20021;-79
2024/01/05 03:48:43;;;;;;;4.90;2.95;;;;;;;4.92;100.00;100257.38;5050200;28;20071;-79
2024/01/05 03:51:08;;;;;;;6.43;3.53;;;;;;;4.52;100.00;100192.09;5049388;28;20028;-79
2024/01/05 03:53:34;;;;;;;7.13;4.05;;;;;;;5.00;100.00;100251.00;5049622;28;20056;-78
2024/01/05 03:56:00;;;;;;;5.75;3.60;;;;;;;5.08;100.00;100269.34;5049842;28;20044;-83
2024/01/05 03:58:27;;;;;;;7.38;3.65;;;;;;;5.09;100.00;100272.78;5049908;28;20078;-79
2024/01/05 04:00:53;;;;;;;6.13;3.70;;;;;;;4.82;100.00;100232.97;5027182;28;20191;-78
2024/01/05 04:03:18;;;;;;;6.05;3.80;;;;;;;4.98;100.00;100260.25;5027471;28;20061;-80
2024/01/05 04:05:43;;;;;;;5.60;3.17;;;;;;;5.20;100.00;100292.19;5027424;28;20041;-80
2024/01/05 04:08:09;;;;;;;7.22;3.47;;;;;;;4.90;100.00;100243.63;5027504;28;20038;-79
2024/01/05 04:10:36;;;;;;;6.25;2.92;;;;;;;4.78;100.00;100231.00;5027124;28;20053;-86
2024/01/05 04:13:02;;;;;;;6.40;3.30;;;;;;;5.19;100.00;100292.97;5027440;28;20037;-79
2024/01/05 04:15:28;;;;;;;5.25;3.20;;;;;;;5.25;100.00;100313.78;5027242;28;20041;-79
2024/01/05 04:17:53;;;;;;;5.15;3.25;;;;;;;5.33;100.00;100332.13;5027492;28;20052;-79
2024/01/05 04:20:19;;;;;;;6.45;3.33;;;;;;;5.41;100.00;100345.34;5026996;28;20045;-86
2024/01/05 04:22:45;;;;;;;5.22;3.30;;;;;;;4.84;100.00;100268.84;5027417;28;20039;-80
2024/01/05 04:25:10;;;;;;;6.93;3.20;;;;;;;5.02;100.00;100310.81;5027249;28;20069;-79
2024/01/05 04:27:36;;;;;;;5.57;3.22;;;;;;;5.25;100.00;100349.63;5027266;28;20044;-79
2024/01/05 04:30:03;;;;;;;6.05;3.20;;;;;;;5.11;100.00;100320.69;5027445;28;20113;-79
2024/01/05 04:32:29;;;;;;;6.32;3.47;;;;;;;5.31;100.00;100346.53;5044219;28;20041;-78
2024/01/05 04:34:55;;;;;;;7.85;3.95;;;;;;;5.34;100.00;100354.38;5049573;28;20036;-80
2024/01/05 04:37:20;;;;;;;7.07;4.85;;;;;;;5.40;100.00;100348.72;5049008;28;20467;-79
2024/01/05 04:39:47;;;;;;;12.25;7.28;;;;;;;5.00;100.00;100296.19;5049292;28;20064;-78
2024/01/05 04:42:12;;;;;;;10.43;5.95;;;;;;;5.36;100.00;100373.28;5049260;28;20480;-78
2024/01/05 04:44:38;;;;;;;12.82;6.20;;;;;;;5.22;100.00;100339.22;5049470;28;20032;-79
2024/01/05 04:47:04;;;;;;;8.50;5.03;;;;;;;5.39;100.00;100376.00;5049744;28;20028;-78
2024/01/05 04:49:31;;;;;;;8.05;4.90;;;;;;;5.33;100.00;100371.44;5049532;28;20029;-78
2024/01/05 04:51:57;;;;;;;7.57;4.30;;;;;;;5.06;100.00;100332.34;5052286;28;20108;-79
2024/01/05 04:54:23;;;;;;;9.07;4.38;;;;;;;5.47;100.00;100402.00;5052863;28;20052;-81
2024/01/05 04:56:49;;;;;;;6.15;3.58;;;;;;;5.12;100.00;100348.06;5051462;28;20033;-81
2024/01/05 04:59:14;;;;;;;5.90;3.53;;;;;;;5.22;100.00;100408.34;5052871;28;20033;-83
2024/01/05 05:01:40;;;;;;;8.60;3.90;;;;;;;5.16;100.00;100410.53;5053265;28;20052;-85
2024/01/05 05:04:05;;;;;;;6.10;3.50;;;;;;;4.97;100.00;100388.09;5052924;28;20112;-80
2024/01/05 05:06:32;;;;;;;9.18;3.70;;;;;;;4.96;100.00;100392.34;5052733;28;20468;-79
2024/01/05 05:08:59;;;;;;;7.57;3.25;;;;;;;4.98;100.00;100413.75;5052701;28;20025;-79
2024/01/05 05:11:24;;;;;;;5.95;3.30;;;;;;;4.67;100.00;100408.53;5052758;28;20032;-79
2024/01/05 05:13:50;;;;;;;7.45;2.90;;;;;;;4.50;100.00;100390.50;5052611;28;20577;-82
2024/01/05 05:16:15;;;;;;;4.90;3.13;;;;;;;4.37;100.00;100382.88;5052810;28;20136;-82
2024/01/05 05:18:41;;;;;;;4.72;3.28;;;;;;;4.07;100.00;100320.59;5052087;28;20037;-80
2024/01/05 05:21:06;;;;;;;8.45;3.30;;;;;;;4.70;100.00;100422.38;5052642;28;20079;-80
2024/01/05 05:23:32;;;;;;;5.15;3.00;;;;;;;4.62;100.00;100418.50;5050038;28;20036;-79
2024/01/05 05:25:58;;;;;;;5.28;3.15;;;;;;;4.69;100.00;100429.97;5052383;28;20025;-79
2024/01/05 05:28:24;;;;;;;5.55;3.00;;;;;;;4.49;100.00;100388.75;5033187;28;20446;-81
2024/01/05 05:30:50;;;;;;;7.45;3.08;;;;;;;4.80;100.00;100434.03;5052398;28;20419;-85
2024/01/05 05:33:17;;;;;;;7.05;3.25;;;;;;;4.24;100.00;100321.59;5051861;28;20036;-79
2024/01/05 05:35:42;;;;;;;5.10;2.90;;;;;;;4.81;100.00;100411.91;5052511;28;20104;-80
2024/01/05 05:38:08;;;;;;;5.20;3.03;;;;;;;4.72;100.00;100393.47;5052185;28;20109;-82
2024/01/05 05:40:35;;;;;;;7.32;3.03;;;;;;;5.14;100.00;100450.50;5051896;28;20028;-80
2024/01/05 05:43:00;;;;;;;6.32;3.00;;;;;;;5.25;100.00;100456.25;5052198;28;20027;-82
2024/01/05 05:45:27;;;;;;;4.63;3.20;;;;;;;5.15;100.00;100444.59;5029636;28;20041;-79
2024/01/05 05:47:52;;;;;;;7.82;2.78;;;;;;;4.80;100.00;100388.00;5024397;28;20045;-82
2024/01/05 05:50:18;;;;;;;4.80;2.88;;;;;;;5.23;100.00;100463.81;5027962;28;20681;-79
2024/01/05 05:52:45;;;;;;;18.08;8.65;;;;;;;5.32;100.00;100471.16;5028871;28;20041;-79
2024/01/05 05:55:12;;;;;;;9.43;5.28;;;;;;;4.57;100.00;100378.09;5028733;28;20508;-80
2024/01/05 05:57:39;;;;;;;7.20;3.10;;;;;;;5.03;100.00;100480.56;5029754;28;20049;-74
2024/01/05 06:00:06;;;;;;;5.25;2.72;;;;;;;4.86;100.00;100459.13;5029301;28;20484;-77
2024/01/05 06:02:31;;;;;;;6.50;2.60;;;;;;;4.78;100.00;100452.66;5022171;28;20120;-81
2024/01/05 06:04:57;;;;;;;36.10;26.52;;;;;;;4.84;100.00;100466.69;5026737;28;20475;-75
2024/01/05 06:07:24;;;;;;;31.60;25.33;;;;;;;4.96;100.00;100479.34;5029177;28;20556;-75
2024/01/05 06:09:50;;;;;;;9.75;7.75;;;;;;;4.93;100.00;100466.34;5029309;28;20100;-77
2024/01/05 06:12:15;;;;;;;7.55;6.03;;;;;;;4.64;100.00;100424.56;5029072;28;20029;-73
2024/01/05 06:14:41;;;;;;;6.07;3.38;;;;;;;4.97;100.00;100470.88;5029466;28;20047;-74
2024/01/05 06:17:08;;;;;;;4.35;2.28;;;;;;;5.06;100.00;100480.75;5040263;28;20504;-76
2024/01/05 06:19:33;;;;;;;4.60;2.30;;;;;;;5.13;100.00;100493.09;5051077;28;20029;-77
2024/01/05 06:21:59;;;;;;;5.25;2.30;;;;;;;5.09;100.00;100478.38;5051265;28;20475;-75
2024/01/05 06:24:26;;;;;;;5.50;2.42;;;;;;;5.11;100.00;100483.56;5050683;28;20021;-76
2024/01/05 06:26:51;;;;;;;4.45;2.70;;;;;;;5.14;100.00;100486.31;5051432;28;20065;-76
2024/01/05 06:29:17;;;;;;;4.22;2.70;;;;;;;4.68;100.00;100406.03;5051332;28;20467;-83
2024/01/05 06:31:43;;;;;;;5.18;2.53;;;;;;;5.29;100.00;100507.69;5050702;28;20058;-79
2024/01/05 06:34:08;;;;;;;3.63;2.15;;;;;;;5.06;100.00;100467.06;5051289;28;20032;-81
2024/01/05 06:36:34;;;;;;;5.70;2.35;;;;;;;5.14;100.00;100478.66;5050879;28;20035;-82
2024/01/05 06:38:59;;;;;;;3.45;2.38;;;;;;;5.16;100.00;100469.41;5049649;28;20033;-83
2024/01/05 06:41:24;;;;;;;4.28;2.58;;;;;;;5.40;100.00;100498.09;5050982;28;20066;-80
2024/01/05 06:43:50;;;;;;;4.13;2.40;;;;;;;5.67;100.00;100533.78;5049058;28;20115;-84
2024/01/05 06:46:15;;;;;;;7.13;2.55;;;;;;;5.86;100.00;100542.50;5045428;28;20495;-80
2024/01/05 06:48:41;;;;;;;6.85;3.78;;;;;;;5.71;100.00;100504.97;5044150;28;20033;-79
2024/01/05 06:51:06;;;;;;;9.48;3.95;;;;;;;5.99;100.00;100552.69;5050404;28;20029;-80
2024/01/05 06:53:32;;;;;;;14.75;6.03;;;;;;;5.98;100.00;100540.63;5050350;28;20060;-85
2024/01/05 06:55:57;;;;;;;7.82;4.55;;;;;;;5.90;100.00;100519.72;5049334;28;20039;-82
2024/01/05 06:58:23;;;;;;;9.35;6.60;;;;;;;5.67;100.00;100496.25;5050683;28;20017;-79
2024/01/05 07:00:49;;;;;;;7.50;5.65;;;;;;;6.04;100.00;100570.91;5045146;28;20032;-79
2024/01/05 07:03:15;;;;;;;7.18;4.50;;;;;;;5.70;100.00;100515.16;5050419;28;20025;-77
2024/01/05 07:05:40;;;;;;;6.72;4.22;;;;;;;5.35;100.00;100443.19;5050169;28;20025;-77
2024/01/05 07:08:09;;;;;;;6.97;3.70;;;;;;;5.98;100.00;100548.31;5048343;28;20108;-78
2024/01/05 07:10:34;;;;;;;6.30;3.92;;;;;;;6.03;100.00;100574.25;5041223;28;20398;-76
2024/01/05 07:13:00;;;;;;;5.35;3.30;;;;;;;6.02;100.00;100557.09;5030773;28;20033;-76
2024/01/05 07:15:25;;;;;;;7.63;4.13;;;;;;;6.06;100.00;100580.44;5050398;28;20406;-78
2024/01/05 07:17:51;;;;;;;5.88;3.47;;;;;;;5.87;100.00;100563.09;5050149;28;20029;-76
2024/01/05 07:20:16;;;;;;;7.93;3.50;;;;;;;5.75;100.00;100527.41;5049922;28;20033;-76
2024/01/05 07:22:42;;;;;;;5.47;3.15;;;;;;;5.89;100.00;100555.50;5050035;28;20037;-77
2024/01/05 07:25:10;;;;;;;5.72;3.03;;;;;;;6.22;100.00;100599.25;5050352;28;20040;-79
2024/01/05 07:27:37;;;;;;;7.88;3.13;;;;;;;6.30;100.00;100580.94;5048656;28;20387;-79
2024/01/05 07:30:06;;;;;;;6.97;3.15;;;;;;;6.53;100.00;100573.66;5046189;28;20110;-84
2024/01/05 07:32:32;;;;;;;5.88;2.90;;;;;;;6.79;100.00;100577.63;5049881;28;20113;-79
2024/01/05 07:34:58;;;;;;;3.80;2.53;;;;;;;6.90;100.00;100583.34;5050568;28;20108;-79
2024/01/05 07:37:23;;;;;;;6.53;3.40;;;;;;;7.17;100.00;100603.56;5050417;28;20029;-79
2024/01/05 07:39:48;;;;;;;5.10;2.70;;;;;;;6.98;100.00;100547.81;5050205;28;20500;-79
2024/01/05 07:42:14;;;;;;;4.55;2.58;;;;;;;7.39;100.00;100584.13;5050260;28;20037;-79
2024/01/05 07:44:39;;;;;;;8.02;3.60;;;;;;;7.48;100.00;100579.47;5050359;28;20053;-78
2024/01/05 07:47:05;;;;;;;7.35;2.97;;;;;;;7.69;100.00;100595.09;5050179;28;20048;-79
2024/01/05 07:49:30;;;;;;;5.20;3.25;;;;;;;7.93;100.00;100612.56;5050170;28;20040;-77
2024/01/05 07:51:56;;;;;;;6.90;3.67;;;;;;;7.68;100.00;100559.06;5050218;28;20064;-76
2024/01/05 07:54:22;;;;;;;7.45;3.00;;;;;;;8.16;100.00;100616.28;5050249;28;20419;-77
2024/01/05 07:56:47;;;;;;;4.35;2.95;;;;;;;7.92;100.00;100560.28;5050234;28;20025;-79
2024/01/05 07:59:15;;;;;;;6.80;3.50;;;;;;;8.35;100.00;100627.44;5050045;28;20029;-77
2024/01/05 08:01:41;;;;;;;8.93;4.18;;;;;;;8.33;100.00;100623.94;5050303;28;20029;-76
2024/01/05 08:04:07;;;;;;;7.35;4.60;;;;;;;8.28;100.00;100620.25;5050076;28;20036;-74
2024/01/05 08:06:33;;;;;;;7.72;4.90;;;;;;;8.35;100.00;100625.75;5049933;28;20066;-75
2024/01/05 08:08:59;;;;;;;65.53;36.30;;;;;;;8.02;100.00;100553.88;5049867;28;20434;-76
2024/01/05 08:11:25;;;;;;;7.40;5.10;;;;;;;8.42;100.00;100626.94;5064566;28;20430;-76
2024/01/05 08:13:51;;;;;;;19.08;8.38;;;;;;;8.49;100.00;100611.00;5050243;28;20037;-75
2024/01/05 08:16:17;;;;;;;7.35;4.60;;;;;;;8.44;100.00;100620.19;5049981;28;20029;-76
2024/01/05 08:18:43;;;;;;;8.57;4.72;;;;;;;8.47;100.00;100620.34;5050066;28;20036;-76
2024/01/05 08:21:08;;;;;;;7.03;4.43;;;;;;;8.50;100.00;100620.50;5050364;28;20510;-74
2024/01/05 08:23:34;;;;;;;8.43;4.70;;;;;;;8.66;100.00;100634.09;5050129;28;20082;-75
2024/01/05 08:26:03;;;;;;;8.70;5.03;;;;;;;8.71;100.00;100630.94;5051457;28;20029;-76
2024/01/05 08:28:30;;;;;;;7.67;4.47;;;;;;;8.81;100.00;100632.25;5053665;28;20033;-77
2024/01/05 08:30:56;;;;;;;9.57;5.43;;;;;;;8.94;100.00;100638.84;5053712;28;20048;-74
2024/01/05 08:33:22;;;;;;;7.30;4.50;;;;;;;9.01;100.00;100637.41;5053386;28;20025;-75
2024/01/05 08:35:47;;;;;;;8.02;5.35;;;;;;;9.02;100.00;100628.88;5053456;28;20024;-75
2024/01/05 08:38:14;;;;;;;7.25;4.97;;;;;;;9.20;100.00;100646.88;5053610;28;20411;-75
2024/01/05 08:40:41;;;;;;;9.23;4.90;;;;;;;9.27;100.00;100648.94;5053552;28;20052;-75
2024/01/05 08:43:06;;;;;;;7.90;3.90;;;;;;;9.30;100.00;100635.31;5052147;28;20029;-75
2024/01/05 08:45:34;;;;;;;7.07;4.40;;;;;;;9.04;100.00;100562.88;5053432;28;20025;-76
2024/01/05 08:48:00;;;;;;;7.60;4.00;;;;;;;9.50;100.00;100634.47;5053493;28;20037;-75
2024/01/05 08:50:25;;;;;;;7.55;4.07;;;;;;;9.67;100.00;100642.06;5053437;28;20452;-76
2024/01/05 08:52:51;;;;;;;8.75;3.50;;;;;;;9.70;100.00;100619.00;5053333;28;20160;-75
2024/01/05 08:55:18;;;;;;;5.07;2.72;;;;;;;10.11;100.00;100637.91;5051569;28;20048;-76
2024/01/05 08:57:47;;;;;;;8.88;3.50;;;;;;;10.29;100.00;100642.06;5053250;28;20056;-75
2024/01/05 09:00:12;;;;;;;6.00;2.97;;;;;;;10.38;100.00;100620.94;5052607;28;20040;-75
2024/01/05 09:02:38;;;;;;;4.55;2.88;;;;;;;10.45;100.00;100605.75;5052887;28;20033;-75
2024/01/05 09:05:04;;;;;;;4.40;2.60;;;;;;;10.80;100.00;100619.19;5052484;28;20106;-77
2024/01/05 09:07:33;;;;;;;3.85;2.45;;;;;;;10.94;100.00;100616.22;5053162;28;20162;-76
2024/01/05 09:09:59;;;;;;;8.60;3.63;;;;;;;10.99;100.00;100609.50;5052991;28;20039;-79
2024/01/05 09:12:25;;;;;;;12.15;6.60;;;;;;;10.99;100.00;100599.19;5052984;28;20028;-77
2024/01/05 09:14:50;;;;;;;5.57;2.85;;;;;;;11.16;100.00;100613.63;5052761;28;20080;-74
2024/01/05 09:17:17;;;;;;;4.30;2.20;;;;;;;11.07;100.00;100579.69;5052741;28;20044;-75
2024/01/05 09:19:43;;;;;;;2.45;1.55;;;;;;;11.02;100.00;100550.22;5051331;28;20043;-74
2024/01/05 09:22:09;;;;;;;6.00;2.63;;;;;;;11.44;100.00;100601.69;5052930;28;20029;-73
2024/01/05 09:24:36;;;;;;;3.08;1.60;;;;;;;11.49;100.00;100583.78;5052548;28;20025;-80
2024/01/05 09:27:04;;;;;;;5.57;2.33;;;;;;;11.52;100.00;100577.81;5052843;28;20037;-74
2024/01/05 09:29:33;;;;;;;8.65;2.92;;;;;;;11.67;100.00;100580.94;5052608;28;20104;-77
2024/01/05 09:32:00;;;;;;;3.45;1.73;;;;;;;12.07;100.00;100584.88;5052710;28;20028;-74
2024/01/05 09:34:25;;;;;;;6.22;2.13;;;;;;;12.16;100.00;100586.00;5052630;28;20032;-74
2024/01/05 09:36:51;;;;;;;5.57;1.60;;;;;;;12.28;100.00;100574.31;5051829;28;20022;-73
2024/01/05 09:39:16;;;;;;;2.67;1.50;;;;;;;12.46;100.00;100578.31;5052387;28;20035;-78
2024/01/05 09:41:45;;;;;;;5.00;1.90;;;;;;;12.36;100.00;100543.53;5052361;28;20064;-78
2024/01/05 09:44:11;;;;;;;3.80;1.50;;;;;;;12.61;100.00;100580.50;5050369;28;20082;-75
2024/01/05 09:46:42;;;;;;;7.60;2.55;;;;;;;12.74;100.00;100585.22;5049463;28;20056;-75
2024/01/05 09:49:09;;;;;;;6.15;2.90;;;;;;;12.45;100.00;100522.22;5047210;28;20471;-76
2024/01/05 09:51:35;;;;;;;6.93;2.88;;;;;;;12.82;100.00;100561.25;5049920;28;20601;-77
2024/01/05 09:54:01;;;;;;;4.63;2.00;;;;;;;12.41;100.00;100486.69;5052061;28;20140;-77
2024/01/05 09:56:28;;;;;;;3.38;1.75;;;;;;;12.97;100.00;100566.00;5049142;28;20376;-78
2024/01/05 09:58:55;;;;;;;4.45;1.90;;;;;;;13.19;100.00;100580.47;5051456;28;20029;-76
2024/01/05 10:01:32;;;;;;;6.15;1.90;;;;;;;13.16;99.74;100577.78;5050363;28;20040;-76
2024/01/05 10:04:01;;;;;;;4.45;1.75;;;;;;;13.25;99.10;100576.31;5050562;28;20021;-74
2024/01/05 10:06:28;;;;;;;5.60;1.70;;;;;;;13.28;98.62;100570.34;5048948;28;20079;-77
2024/01/05 10:08:54;;;;;;;5.10;1.55;;;;;;;13.21;96.14;100563.25;5051249;28;20843;-76
2024/01/05 10:11:30;;;;;;;5.55;1.30;;;;;;;13.25;95.89;100570.28;5050959;28;20166;-75
2024/01/05 10:14:00;;;;;;;3.08;1.20;;;;;;;12.75;96.50;100491.13;5047301;28;20061;-76
2024/01/05 10:16:34;;;;;;;4.75;1.45;;;;;;;13.21;96.19;100558.06;5031649;28;20036;-77
2024/01/05 10:19:12;;;;;;;2.67;1.15;;;;;;;13.33;93.97;100554.91;5046149;28;20040;-78
2024/01/05 10:21:46;;;;;;;2.93;1.23;;;;;;;13.33;95.39;100553.19;5051301;28;20033;-78
2024/01/05 10:24:26;;;;;;;4.95;1.60;;;;;;;13.44;94.33;100556.09;5051779;28;20060;-77
2024/01/05 10:27:05;;;;;;;3.28;1.35;;;;;;;13.38;94.33;100546.47;5049408;28;20041;-75
2024/01/05 10:29:31;;;;;;;4.10;1.33;;;;;;;13.54;92.36;100545.13;5066907;28;20033;-77
2024/01/05 10:32:13;;;;;;;4.07;1.65;;;;;;;13.62;92.17;100527.19;5051418;28;20033;-75
2024/01/05 10:34:39;;;;;;;3.60;2.13;;;;;;;13.81;92.74;100530.25;5051672;28;20021;-75
2024/01/05 10:37:06;;;;;;;2.60;1.20;;;;;;;13.85;90.62;100526.88;5051447;28;20025;-78
2024/01/05 10:39:32;;;;;;;2.60;1.23;;;;;;;13.71;89.78;100524.81;5050621;28;20086;-75
2024/01/05 10:42:22;;;;;;;4.68;1.42;;;;;;;13.79;89.87;100529.31;5050502;28;20590;-75
2024/01/05 10:44:51;;;;;;;3.60;1.40;;;;;;;13.30;87.33;100438.19;5051446;28;20025;-75
2024/01/05 10:47:18;;;;;;;2.78;1.35;;;;;;;13.73;88.49;100520.56;5050674;28;20044;-74
2024/01/05 10:49:50;;;;;;;6.97;1.58;;;;;;;13.78;89.47;100525.84;5050671;28;20040;-74
2024/01/05 10:52:17;;;;;;;4.57;1.40;;;;;;;13.89;88.74;100510.53;5051077;28;20029;-79
2024/01/05 10:54:48;;;;;;;3.65;1.70;;;;;;;13.96;88.45;100493.41;5049650;28;20151;-75
2024/01/05 10:57:16;;;;;;;4.80;1.80;;;;;;;14.15;88.36;100508.56;5050305;28;20025;-76
2024/01/05 10:59:50;;;;;;;9.82;2.13;;;;;;;14.19;86.85;100501.72;5051161;28;20411;-75
2024/01/05 11:02:18;;;;;;;4.82;1.40;;;;;;;14.16;87.40;100499.06;5048101;28;20418;-77
2024/01/05 11:04:47;;;;;;;6.07;1.52;;;;;;;14.17;86.12;100490.44;5049965;28;20036;-76
2024/01/05 11:07:16;;;;;;;3.85;1.38;;;;;;;14.19;86.21;100474.03;5047332;28;20061;-77
2024/01/05 11:10:18;;;;;;;3.88;1.58;;;;;;;14.21;85.34;100445.50;5045756;28;20037;-74
2024/01/05 11:13:32;;;;;;;3.28;1.27;;;;;;;14.51;83.61;100478.16;5028370;28;20085;-75
2024/01/05 11:16:36;;;;;;;5.18;1.70;;;;;;;14.65;83.07;100470.69;4992193;28;20632;-76
2024/01/05 11:19:17;;;;;;;3.83;1.52;;;;;;;14.56;83.95;100473.94;4930855;29;20083;-79
2024/01/05 11:22:04;;;;;;;4.63;1.30;;;;;;;14.62;83.77;100475.81;4931269;29;20071;-75
2024/01/05 11:24:32;;;;;;;6.90;1.35;;;;;;;13.95;81.16;100357.56;4931122;29;20040;-74